sensor_id;sensor_type;location;lat;lon;timestamp;temperature;humidity
44607;DHT22;30315;46.072;14.474;2022-12-18T00:01:44;4.90;90.20
44607;DHT22;30315;46.072;14.474;2022-12-18T00:04:22;4.80;90.10
44607;DHT22;30315;46.072;14.474;2022-12-18T00:06:50;4.80;90.20
44607;DHT22;30315;46.072;14.474;2022-12-18T00:09:17;4.80;90.20
44607;DHT22;30315;46.072;14.474;2022-12-18T00:11:44;4.80;90.30
44607;DHT22;30315;46.072;14.474;2022-12-18T00:14:12;4.80;90.30
44607;DHT22;30315;46.072;14.474;2022-12-18T00:16:42;5.00;90.40
44607;DHT22;30315;46.072;14.474;2022-12-18T00:19:10;4.70;90.40
44607;DHT22;30315;46.072;14.474;2022-12-18T00:21:37;5.00;90.60
44607;DHT22;30315;46.072;14.474;2022-12-18T00:24:06;4.70;90.60
44607;DHT22;30315;46.072;14.474;2022-12-18T00:26:34;4.70;90.70
44607;DHT22;30315;46.072;14.474;2022-12-18T00:29:03;4.80;90.80
44607;DHT22;30315;46.072;14.474;2022-12-18T00:31:33;4.80;90.80
44607;DHT22;30315;46.072;14.474;2022-12-18T00:34:01;4.80;90.80
44607;DHT22;30315;46.072;14.474;2022-12-18T00:36:30;4.80;90.80
44607;DHT22;30315;46.072;14.474;2022-12-18T00:38:58;4.80;90.90
44607;DHT22;30315;46.072;14.474;2022-12-18T00:41:25;4.80;91.00
44607;DHT22;30315;46.072;14.474;2022-12-18T00:44:13;4.80;91.00
44607;DHT22;30315;46.072;14.474;2022-12-18T00:46:41;4.80;91.00
44607;DHT22;30315;46.072;14.474;2022-12-18T00:49:09;4.80;90.80
44607;DHT22;30315;46.072;14.474;2022-12-18T00:51:38;4.80;90.80
44607;DHT22;30315;46.072;14.474;2022-12-18T00:54:05;4.90;90.80
44607;DHT22;30315;46.072;14.474;2022-12-18T00:56:36;4.80;90.70
44607;DHT22;30315;46.072;14.474;2022-12-18T00:59:15;4.70;90.50
44607;DHT22;30315;46.072;14.474;2022-12-18T01:01:43;4.70;90.40
44607;DHT22;30315;46.072;14.474;2022-12-18T01:04:11;4.70;90.20
44607;DHT22;30315;46.072;14.474;2022-12-18T01:06:38;4.70;90.20
44607;DHT22;30315;46.072;14.474;2022-12-18T01:09:06;4.80;90.20
44607;DHT22;30315;46.072;14.474;2022-12-18T01:11:35;4.70;90.10
44607;DHT22;30315;46.072;14.474;2022-12-18T01:14:04;5.00;90.10
44607;DHT22;30315;46.072;14.474;2022-12-18T01:16:31;4.80;90.00
44607;DHT22;30315;46.072;14.474;2022-12-18T01:18:58;4.80;90.10
44607;DHT22;30315;46.072;14.474;2022-12-18T01:21:26;4.50;90.10
44607;DHT22;30315;46.072;14.474;2022-12-18T01:23:55;4.40;90.10
44607;DHT22;30315;46.072;14.474;2022-12-18T01:26:24;4.50;90.20
44607;DHT22;30315;46.072;14.474;2022-12-18T01:28:54;4.40;90.10
44607;DHT22;30315;46.072;14.474;2022-12-18T01:31:40;4.70;90.20
44607;DHT22;30315;46.072;14.474;2022-12-18T01:34:08;4.40;90.10
44607;DHT22;30315;46.072;14.474;2022-12-18T01:36:37;4.40;90.00
44607;DHT22;30315;46.072;14.474;2022-12-18T01:39:12;4.40;90.10
44607;DHT22;30315;46.072;14.474;2022-12-18T01:41:41;4.40;90.00
44607;DHT22;30315;46.072;14.474;2022-12-18T01:47:40;4.50;90.10
44607;DHT22;30315;46.072;14.474;2022-12-18T01:50:18;4.30;90.20
44607;DHT22;30315;46.072;14.474;2022-12-18T01:53:03;4.30;90.30
44607;DHT22;30315;46.072;14.474;2022-12-18T01:55:56;4.30;90.30
44607;DHT22;30315;46.072;14.474;2022-12-18T01:58:48;4.30;90.40
44607;DHT22;30315;46.072;14.474;2022-12-18T02:01:16;4.20;90.30
44607;DHT22;30315;46.072;14.474;2022-12-18T02:03:44;4.30;90.50
44607;DHT22;30315;46.072;14.474;2022-12-18T02:09:12;4.30;90.50
44607;DHT22;30315;46.072;14.474;2022-12-18T02:27:49;4.20;90.50
44607;DHT22;30315;46.072;14.474;2022-12-18T02:30:20;4.30;90.60
44607;DHT22;30315;46.072;14.474;2022-12-18T02:32:51;4.70;90.80
44607;DHT22;30315;46.072;14.474;2022-12-18T02:35:24;4.50;90.70
44607;DHT22;30315;46.072;14.474;2022-12-18T02:37:54;4.30;90.50
44607;DHT22;30315;46.072;14.474;2022-12-18T02:40:24;4.30;90.40
44607;DHT22;30315;46.072;14.474;2022-12-18T02:42:53;4.30;90.30
44607;DHT22;30315;46.072;14.474;2022-12-18T02:45:20;4.40;90.10
44607;DHT22;30315;46.072;14.474;2022-12-18T02:47:49;4.30;90.10
44607;DHT22;30315;46.072;14.474;2022-12-18T02:50:40;4.30;90.10
44607;DHT22;30315;46.072;14.474;2022-12-18T02:53:19;4.20;90.00
44607;DHT22;30315;46.072;14.474;2022-12-18T02:56:16;4.30;90.00
44607;DHT22;30315;46.072;14.474;2022-12-18T03:02:04;4.30;90.10
44607;DHT22;30315;46.072;14.474;2022-12-18T03:05:36;4.10;90.00
44607;DHT22;30315;46.072;14.474;2022-12-18T03:07:44;4.10;90.10
44607;DHT22;30315;46.072;14.474;2022-12-18T03:10:17;4.10;90.20
44607;DHT22;30315;46.072;14.474;2022-12-18T03:13:03;4.10;90.30
44607;DHT22;30315;46.072;14.474;2022-12-18T03:15:36;4.30;90.50
44607;DHT22;30315;46.072;14.474;2022-12-18T03:18:52;4.50;90.60
44607;DHT22;30315;46.072;14.474;2022-12-18T03:21:13;4.10;90.50
44607;DHT22;30315;46.072;14.474;2022-12-18T03:23:46;4.10;90.50
44607;DHT22;30315;46.072;14.474;2022-12-18T03:26:17;4.10;90.50
44607;DHT22;30315;46.072;14.474;2022-12-18T03:28:53;4.10;90.40
44607;DHT22;30315;46.072;14.474;2022-12-18T03:31:26;4.10;90.30
44607;DHT22;30315;46.072;14.474;2022-12-18T03:33:59;4.10;90.30
44607;DHT22;30315;46.072;14.474;2022-12-18T03:36:37;4.40;90.30
44607;DHT22;30315;46.072;14.474;2022-12-18T03:39:06;4.10;90.20
44607;DHT22;30315;46.072;14.474;2022-12-18T03:45:06;4.10;90.10
44607;DHT22;30315;46.072;14.474;2022-12-18T03:48:00;4.10;90.00
44607;DHT22;30315;46.072;14.474;2022-12-18T03:53:15;4.00;90.00
44607;DHT22;30315;46.072;14.474;2022-12-18T03:55:48;4.00;90.00
44607;DHT22;30315;46.072;14.474;2022-12-18T03:58:17;4.40;90.00
44607;DHT22;30315;46.072;14.474;2022-12-18T04:00:56;4.00;89.50
44607;DHT22;30315;46.072;14.474;2022-12-18T04:03:28;4.00;89.50
44607;DHT22;30315;46.072;14.474;2022-12-18T04:05:57;4.20;89.60
44607;DHT22;30315;46.072;14.474;2022-12-18T04:08:27;3.90;89.30
44607;DHT22;30315;46.072;14.474;2022-12-18T04:11:05;3.90;89.30
44607;DHT22;30315;46.072;14.474;2022-12-18T04:13:38;3.90;89.50
44607;DHT22;30315;46.072;14.474;2022-12-18T04:16:13;3.80;89.40
44607;DHT22;30315;46.072;14.474;2022-12-18T04:18:42;3.80;89.30
44607;DHT22;30315;46.072;14.474;2022-12-18T04:21:10;3.80;89.60
44607;DHT22;30315;46.072;14.474;2022-12-18T04:23:37;4.20;89.80
44607;DHT22;30315;46.072;14.474;2022-12-18T04:26:05;4.00;89.60
44607;DHT22;30315;46.072;14.474;2022-12-18T04:28:51;3.70;89.30
44607;DHT22;30315;46.072;14.474;2022-12-18T04:31:20;3.70;89.50
44607;DHT22;30315;46.072;14.474;2022-12-18T04:33:47;3.60;89.50
44607;DHT22;30315;46.072;14.474;2022-12-18T04:36:16;3.70;89.70
44607;DHT22;30315;46.072;14.474;2022-12-18T04:38:44;3.60;89.70
44607;DHT22;30315;46.072;14.474;2022-12-18T04:41:14;4.10;90.00
44607;DHT22;30315;46.072;14.474;2022-12-18T04:43:43;4.00;90.00
44607;DHT22;30315;46.072;14.474;2022-12-18T04:46:10;3.60;89.60
44607;DHT22;30315;46.072;14.474;2022-12-18T04:48:38;3.60;89.40
44607;DHT22;30315;46.072;14.474;2022-12-18T04:51:05;3.70;89.30
44607;DHT22;30315;46.072;14.474;2022-12-18T04:53:33;3.50;89.00
44607;DHT22;30315;46.072;14.474;2022-12-18T04:56:11;3.50;89.00
44607;DHT22;30315;46.072;14.474;2022-12-18T04:58:41;3.50;89.20
44607;DHT22;30315;46.072;14.474;2022-12-18T05:01:09;3.70;89.50
44607;DHT22;30315;46.072;14.474;2022-12-18T05:03:38;3.40;89.20
44607;DHT22;30315;46.072;14.474;2022-12-18T05:06:07;3.40;89.30
44607;DHT22;30315;46.072;14.474;2022-12-18T05:08:34;3.80;89.60
44607;DHT22;30315;46.072;14.474;2022-12-18T05:11:03;3.80;89.70
44607;DHT22;30315;46.072;14.474;2022-12-18T05:13:32;3.40;89.40
44607;DHT22;30315;46.072;14.474;2022-12-18T05:15:59;3.70;89.70
44607;DHT22;30315;46.072;14.474;2022-12-18T05:18:26;3.40;89.30
44607;DHT22;30315;46.072;14.474;2022-12-18T05:20:54;3.80;89.60
44607;DHT22;30315;46.072;14.474;2022-12-18T05:23:23;3.60;89.40
44607;DHT22;30315;46.072;14.474;2022-12-18T05:25:55;3.30;89.10
44607;DHT22;30315;46.072;14.474;2022-12-18T05:28:23;3.40;89.30
44607;DHT22;30315;46.072;14.474;2022-12-18T05:30:52;3.40;89.40
44607;DHT22;30315;46.072;14.474;2022-12-18T05:33:21;3.40;89.40
44607;DHT22;30315;46.072;14.474;2022-12-18T05:35:55;3.40;89.30
44607;DHT22;30315;46.072;14.474;2022-12-18T05:38:24;3.40;89.30
44607;DHT22;30315;46.072;14.474;2022-12-18T05:40:52;3.50;89.50
44607;DHT22;30315;46.072;14.474;2022-12-18T05:43:23;3.90;90.00
44607;DHT22;30315;46.072;14.474;2022-12-18T05:45:52;3.40;89.70
44607;DHT22;30315;46.072;14.474;2022-12-18T05:48:20;3.70;90.00
44607;DHT22;30315;46.072;14.474;2022-12-18T05:50:49;3.40;89.80
44607;DHT22;30315;46.072;14.474;2022-12-18T05:53:18;3.70;89.70
44607;DHT22;30315;46.072;14.474;2022-12-18T05:55:46;3.50;89.30
44607;DHT22;30315;46.072;14.474;2022-12-18T05:58:14;3.60;89.30
44607;DHT22;30315;46.072;14.474;2022-12-18T06:00:45;3.60;89.40
44607;DHT22;30315;46.072;14.474;2022-12-18T06:03:12;3.60;89.00
44607;DHT22;30315;46.072;14.474;2022-12-18T06:05:44;3.80;89.00
44607;DHT22;30315;46.072;14.474;2022-12-18T06:08:12;3.50;88.40
44607;DHT22;30315;46.072;14.474;2022-12-18T06:10:40;3.50;88.50
44607;DHT22;30315;46.072;14.474;2022-12-18T06:13:08;3.50;88.40
44607;DHT22;30315;46.072;14.474;2022-12-18T06:15:38;3.50;88.10
44607;DHT22;30315;46.072;14.474;2022-12-18T06:18:05;3.40;88.30
44607;DHT22;30315;46.072;14.474;2022-12-18T06:20:32;3.40;88.50
44607;DHT22;30315;46.072;14.474;2022-12-18T06:23:00;3.80;89.00
44607;DHT22;30315;46.072;14.474;2022-12-18T06:25:27;3.50;88.90
44607;DHT22;30315;46.072;14.474;2022-12-18T06:27:54;3.80;89.20
44607;DHT22;30315;46.072;14.474;2022-12-18T06:30:22;3.40;88.80
44607;DHT22;30315;46.072;14.474;2022-12-18T06:32:49;3.40;89.00
44607;DHT22;30315;46.072;14.474;2022-12-18T06:35:23;3.40;89.00
44607;DHT22;30315;46.072;14.474;2022-12-18T06:37:50;3.50;89.00
44607;DHT22;30315;46.072;14.474;2022-12-18T06:40:19;3.50;89.10
44607;DHT22;30315;46.072;14.474;2022-12-18T06:42:46;3.80;89.20
44607;DHT22;30315;46.072;14.474;2022-12-18T06:45:14;3.40;88.90
44607;DHT22;30315;46.072;14.474;2022-12-18T06:47:41;3.40;88.90
44607;DHT22;30315;46.072;14.474;2022-12-18T06:50:08;3.40;88.80
44607;DHT22;30315;46.072;14.474;2022-12-18T06:52:35;3.50;88.70
44607;DHT22;30315;46.072;14.474;2022-12-18T06:55:03;3.60;89.10
44607;DHT22;30315;46.072;14.474;2022-12-18T06:57:30;3.50;88.90
44607;DHT22;30315;46.072;14.474;2022-12-18T06:59:58;3.50;89.00
44607;DHT22;30315;46.072;14.474;2022-12-18T07:02:24;3.40;88.60
44607;DHT22;30315;46.072;14.474;2022-12-18T07:04:53;3.50;88.50
44607;DHT22;30315;46.072;14.474;2022-12-18T07:07:19;3.50;88.90
44607;DHT22;30315;46.072;14.474;2022-12-18T07:09:49;3.70;89.10
44607;DHT22;30315;46.072;14.474;2022-12-18T07:12:16;3.80;89.10
44607;DHT22;30315;46.072;14.474;2022-12-18T07:14:44;3.90;88.80
44607;DHT22;30315;46.072;14.474;2022-12-18T07:17:11;3.50;88.40
44607;DHT22;30315;46.072;14.474;2022-12-18T07:19:38;3.60;88.70
44607;DHT22;30315;46.072;14.474;2022-12-18T07:22:04;3.60;88.60
44607;DHT22;30315;46.072;14.474;2022-12-18T07:24:33;3.60;88.40
44607;DHT22;30315;46.072;14.474;2022-12-18T07:27:01;3.50;88.30
44607;DHT22;30315;46.072;14.474;2022-12-18T07:29:28;3.80;88.70
44607;DHT22;30315;46.072;14.474;2022-12-18T07:31:55;3.90;88.90
44607;DHT22;30315;46.072;14.474;2022-12-18T07:34:22;3.60;88.50
44607;DHT22;30315;46.072;14.474;2022-12-18T07:36:49;3.60;88.50
44607;DHT22;30315;46.072;14.474;2022-12-18T07:39:17;3.60;88.50
44607;DHT22;30315;46.072;14.474;2022-12-18T07:41:43;3.70;88.60
44607;DHT22;30315;46.072;14.474;2022-12-18T07:44:32;4.10;89.20
44607;DHT22;30315;46.072;14.474;2022-12-18T07:46:59;3.60;89.00
44607;DHT22;30315;46.072;14.474;2022-12-18T07:49:26;3.60;89.10
44607;DHT22;30315;46.072;14.474;2022-12-18T07:51:55;3.70;89.20
44607;DHT22;30315;46.072;14.474;2022-12-18T07:54:23;3.70;89.30
44607;DHT22;30315;46.072;14.474;2022-12-18T07:56:51;4.10;89.90
44607;DHT22;30315;46.072;14.474;2022-12-18T07:59:18;3.80;89.50
44607;DHT22;30315;46.072;14.474;2022-12-18T08:01:45;3.90;89.50
44607;DHT22;30315;46.072;14.474;2022-12-18T08:04:12;4.00;90.60
44607;DHT22;30315;46.072;14.474;2022-12-18T08:06:39;4.10;90.30
44607;DHT22;30315;46.072;14.474;2022-12-18T08:09:13;4.10;90.40
44607;DHT22;30315;46.072;14.474;2022-12-18T08:11:40;4.10;90.10
44607;DHT22;30315;46.072;14.474;2022-12-18T08:14:07;4.40;90.20
44607;DHT22;30315;46.072;14.474;2022-12-18T08:16:34;4.20;89.90
44607;DHT22;30315;46.072;14.474;2022-12-18T08:19:01;4.50;89.80
44607;DHT22;30315;46.072;14.474;2022-12-18T08:21:30;4.60;90.00
44607;DHT22;30315;46.072;14.474;2022-12-18T08:23:59;4.40;89.60
44607;DHT22;30315;46.072;14.474;2022-12-18T08:26:29;4.40;89.50
44607;DHT22;30315;46.072;14.474;2022-12-18T08:28:58;4.50;90.20
44607;DHT22;30315;46.072;14.474;2022-12-18T08:31:29;4.50;90.10
44607;DHT22;30315;46.072;14.474;2022-12-18T08:33:57;4.70;90.00
44607;DHT22;30315;46.072;14.474;2022-12-18T08:36:24;4.70;89.80
44607;DHT22;30315;46.072;14.474;2022-12-18T08:38:52;4.70;89.70
44607;DHT22;30315;46.072;14.474;2022-12-18T08:41:20;5.00;89.70
44607;DHT22;30315;46.072;14.474;2022-12-18T08:43:47;4.90;89.00
44607;DHT22;30315;46.072;14.474;2022-12-18T08:46:36;4.90;88.50
44607;DHT22;30315;46.072;14.474;2022-12-18T08:49:04;5.10;88.40
44607;DHT22;30315;46.072;14.474;2022-12-18T08:51:32;5.40;89.30
44607;DHT22;30315;46.072;14.474;2022-12-18T08:54:00;5.10;88.80
44607;DHT22;30315;46.072;14.474;2022-12-18T08:56:28;5.40;88.50
44607;DHT22;30315;46.072;14.474;2022-12-18T08:58:57;5.20;88.10
44607;DHT22;30315;46.072;14.474;2022-12-18T09:01:25;5.30;87.90
44607;DHT22;30315;46.072;14.474;2022-12-18T09:03:52;5.60;87.60
44607;DHT22;30315;46.072;14.474;2022-12-18T09:06:21;5.50;87.10
44607;DHT22;30315;46.072;14.474;2022-12-18T09:08:48;5.90;86.80
44607;DHT22;30315;46.072;14.474;2022-12-18T09:11:25;5.60;86.50
44607;DHT22;30315;46.072;14.474;2022-12-18T09:13:53;5.60;87.00
44607;DHT22;30315;46.072;14.474;2022-12-18T09:16:23;5.70;86.80
44607;DHT22;30315;46.072;14.474;2022-12-18T09:18:58;5.80;86.00
44607;DHT22;30315;46.072;14.474;2022-12-18T09:21:31;6.10;84.80
44607;DHT22;30315;46.072;14.474;2022-12-18T09:24:04;6.10;84.10
44607;DHT22;30315;46.072;14.474;2022-12-18T09:26:35;5.90;83.40
44607;DHT22;30315;46.072;14.474;2022-12-18T09:29:03;5.90;82.90
44607;DHT22;30315;46.072;14.474;2022-12-18T09:31:31;6.10;82.90
44607;DHT22;30315;46.072;14.474;2022-12-18T09:33:58;5.90;81.80
44607;DHT22;30315;46.072;14.474;2022-12-18T09:36:25;5.80;80.60
44607;DHT22;30315;46.072;14.474;2022-12-18T09:38:52;5.80;81.10
44607;DHT22;30315;46.072;14.474;2022-12-18T09:41:54;5.80;80.30
44607;DHT22;30315;46.072;14.474;2022-12-18T09:44:52;5.90;80.20
44607;DHT22;30315;46.072;14.474;2022-12-18T09:47:30;5.90;79.70
44607;DHT22;30315;46.072;14.474;2022-12-18T09:50:21;6.10;79.90
44607;DHT22;30315;46.072;14.474;2022-12-18T09:52:54;6.00;80.20
44607;DHT22;30315;46.072;14.474;2022-12-18T09:58:16;6.20;80.10
44607;DHT22;30315;46.072;14.474;2022-12-18T10:00:46;6.30;80.40
44607;DHT22;30315;46.072;14.474;2022-12-18T10:03:14;6.30;78.50
44607;DHT22;30315;46.072;14.474;2022-12-18T10:05:59;6.40;77.60
44607;DHT22;30315;46.072;14.474;2022-12-18T10:08:49;6.30;76.60
44607;DHT22;30315;46.072;14.474;2022-12-18T10:11:29;6.40;75.80
44607;DHT22;30315;46.072;14.474;2022-12-18T10:22:10;6.50;73.50
44607;DHT22;30315;46.072;14.474;2022-12-18T10:27:25;6.50;73.20
44607;DHT22;30315;46.072;14.474;2022-12-18T10:29:53;6.60;73.00
44607;DHT22;30315;46.072;14.474;2022-12-18T10:32:23;6.50;72.20
44607;DHT22;30315;46.072;14.474;2022-12-18T10:34:57;6.60;73.20
44607;DHT22;30315;46.072;14.474;2022-12-18T10:37:28;7.00;74.10
44607;DHT22;30315;46.072;14.474;2022-12-18T10:40:15;6.80;74.60
44607;DHT22;30315;46.072;14.474;2022-12-18T10:43:10;6.90;74.50
44607;DHT22;30315;46.072;14.474;2022-12-18T10:45:37;7.10;74.40
44607;DHT22;30315;46.072;14.474;2022-12-18T10:48:05;7.20;73.10
44607;DHT22;30315;46.072;14.474;2022-12-18T10:50:47;7.20;75.00
44607;DHT22;30315;46.072;14.474;2022-12-18T10:53:37;7.50;73.40
44607;DHT22;30315;46.072;14.474;2022-12-18T10:56:05;7.30;71.70
44607;DHT22;30315;46.072;14.474;2022-12-18T10:58:35;7.30;70.10
44607;DHT22;30315;46.072;14.474;2022-12-18T11:06:31;7.60;72.40
44607;DHT22;30315;46.072;14.474;2022-12-18T11:11:38;7.50;69.70
44607;DHT22;30315;46.072;14.474;2022-12-18T11:14:21;7.60;69.20
44607;DHT22;30315;46.072;14.474;2022-12-18T11:16:51;7.80;69.40
44607;DHT22;30315;46.072;14.474;2022-12-18T11:19:40;7.60;68.80
44607;DHT22;30315;46.072;14.474;2022-12-18T11:22:27;7.70;70.50
44607;DHT22;30315;46.072;14.474;2022-12-18T11:25:06;7.60;69.50
44607;DHT22;30315;46.072;14.474;2022-12-18T11:28:00;7.70;70.50
44607;DHT22;30315;46.072;14.474;2022-12-18T11:30:35;8.10;69.20
44607;DHT22;30315;46.072;14.474;2022-12-18T11:38:25;7.70;63.30
44607;DHT22;30315;46.072;14.474;2022-12-18T11:46:05;7.30;63.20
44607;DHT22;30315;46.072;14.474;2022-12-18T11:48:38;7.30;64.20
44607;DHT22;30315;46.072;14.474;2022-12-18T11:51:18;7.20;64.00
44607;DHT22;30315;46.072;14.474;2022-12-18T11:53:51;7.30;64.20
44607;DHT22;30315;46.072;14.474;2022-12-18T11:56:35;7.20;63.80
44607;DHT22;30315;46.072;14.474;2022-12-18T12:27:15;6.50;64.50
44607;DHT22;30315;46.072;14.474;2022-12-18T12:38:37;6.40;66.00
44607;DHT22;30315;46.072;14.474;2022-12-18T12:41:17;6.40;65.40
44607;DHT22;30315;46.072;14.474;2022-12-18T12:44:08;6.40;66.10
44607;DHT22;30315;46.072;14.474;2022-12-18T12:46:39;6.30;65.50
44607;DHT22;30315;46.072;14.474;2022-12-18T12:49:15;6.30;66.40
44607;DHT22;30315;46.072;14.474;2022-12-18T12:51:57;6.30;66.60
44607;DHT22;30315;46.072;14.474;2022-12-18T12:54:37;6.20;68.20
44607;DHT22;30315;46.072;14.474;2022-12-18T12:57:29;6.20;67.00
44607;DHT22;30315;46.072;14.474;2022-12-18T13:00:04;6.10;66.00
44607;DHT22;30315;46.072;14.474;2022-12-18T13:02:53;6.10;65.70
44607;DHT22;30315;46.072;14.474;2022-12-18T13:05:45;6.00;65.60
44607;DHT22;30315;46.072;14.474;2022-12-18T13:08:34;6.00;65.50
44607;DHT22;30315;46.072;14.474;2022-12-18T13:11:40;6.00;65.40
44607;DHT22;30315;46.072;14.474;2022-12-18T13:14:45;6.00;65.10
44607;DHT22;30315;46.072;14.474;2022-12-18T13:17:27;5.90;65.70
44607;DHT22;30315;46.072;14.474;2022-12-18T13:20:09;5.90;65.90
44607;DHT22;30315;46.072;14.474;2022-12-18T13:22:44;5.90;65.20
44607;DHT22;30315;46.072;14.474;2022-12-18T13:25:41;5.90;64.90
44607;DHT22;30315;46.072;14.474;2022-12-18T13:34:31;5.80;63.90
44607;DHT22;30315;46.072;14.474;2022-12-18T13:41:14;5.80;64.30
44607;DHT22;30315;46.072;14.474;2022-12-18T13:45:49;5.80;64.40
44607;DHT22;30315;46.072;14.474;2022-12-18T13:48:19;6.20;65.00
44607;DHT22;30315;46.072;14.474;2022-12-18T13:51:05;6.10;65.40
44607;DHT22;30315;46.072;14.474;2022-12-18T13:56:16;5.80;65.10
44607;DHT22;30315;46.072;14.474;2022-12-18T13:58:45;6.00;65.20
44607;DHT22;30315;46.072;14.474;2022-12-18T14:01:22;5.80;65.40
44607;DHT22;30315;46.072;14.474;2022-12-18T14:03:50;5.80;65.90
44607;DHT22;30315;46.072;14.474;2022-12-18T14:06:18;5.90;65.70
44607;DHT22;30315;46.072;14.474;2022-12-18T14:08:46;5.80;65.50
44607;DHT22;30315;46.072;14.474;2022-12-18T14:11:20;5.80;65.90
44607;DHT22;30315;46.072;14.474;2022-12-18T14:13:52;6.10;66.10
44607;DHT22;30315;46.072;14.474;2022-12-18T14:16:19;5.80;66.10
44607;DHT22;30315;46.072;14.474;2022-12-18T14:18:53;5.70;66.00
44607;DHT22;30315;46.072;14.474;2022-12-18T14:21:37;5.70;66.00
44607;DHT22;30315;46.072;14.474;2022-12-18T14:24:18;5.60;66.10
44607;DHT22;30315;46.072;14.474;2022-12-18T14:26:48;5.40;67.00
44607;DHT22;30315;46.072;14.474;2022-12-18T14:34:49;5.60;66.40
44607;DHT22;30315;46.072;14.474;2022-12-18T14:37:26;5.60;66.80
44607;DHT22;30315;46.072;14.474;2022-12-18T14:40:02;5.60;66.80
44607;DHT22;30315;46.072;14.474;2022-12-18T14:42:44;5.50;66.50
44607;DHT22;30315;46.072;14.474;2022-12-18T14:45:51;5.60;66.50
44607;DHT22;30315;46.072;14.474;2022-12-18T14:48:39;5.50;66.40
44607;DHT22;30315;46.072;14.474;2022-12-18T14:51:31;5.60;66.60
44607;DHT22;30315;46.072;14.474;2022-12-18T14:54:25;5.60;67.00
44607;DHT22;30315;46.072;14.474;2022-12-18T14:57:35;5.60;66.90
44607;DHT22;30315;46.072;14.474;2022-12-18T15:00:18;5.70;66.70
44607;DHT22;30315;46.072;14.474;2022-12-18T15:02:57;5.60;66.50
44607;DHT22;30315;46.072;14.474;2022-12-18T15:05:28;5.60;66.40
44607;DHT22;30315;46.072;14.474;2022-12-18T15:08:24;5.50;66.50
44607;DHT22;30315;46.072;14.474;2022-12-18T15:10:52;5.50;66.30
44607;DHT22;30315;46.072;14.474;2022-12-18T15:13:24;5.40;66.40
44607;DHT22;30315;46.072;14.474;2022-12-18T15:15:57;5.40;66.80
44607;DHT22;30315;46.072;14.474;2022-12-18T15:18:35;5.40;66.80
44607;DHT22;30315;46.072;14.474;2022-12-18T15:21:10;5.40;66.60
44607;DHT22;30315;46.072;14.474;2022-12-18T15:26:16;5.30;65.90
44607;DHT22;30315;46.072;14.474;2022-12-18T15:28:56;5.20;65.80
44607;DHT22;30315;46.072;14.474;2022-12-18T15:31:42;5.30;66.40
44607;DHT22;30315;46.072;14.474;2022-12-18T15:34:18;5.30;66.40
44607;DHT22;30315;46.072;14.474;2022-12-18T15:36:51;5.20;65.90
44607;DHT22;30315;46.072;14.474;2022-12-18T15:39:28;5.20;65.50
44607;DHT22;30315;46.072;14.474;2022-12-18T15:42:18;5.20;65.50
44607;DHT22;30315;46.072;14.474;2022-12-18T15:45:04;5.20;65.50
44607;DHT22;30315;46.072;14.474;2022-12-18T15:47:32;5.20;65.70
44607;DHT22;30315;46.072;14.474;2022-12-18T15:50:02;5.10;66.00
44607;DHT22;30315;46.072;14.474;2022-12-18T15:52:31;5.10;65.80
44607;DHT22;30315;46.072;14.474;2022-12-18T15:55:13;5.10;65.70
44607;DHT22;30315;46.072;14.474;2022-12-18T15:58:06;5.10;65.80
44607;DHT22;30315;46.072;14.474;2022-12-18T16:00:40;5.10;66.00
44607;DHT22;30315;46.072;14.474;2022-12-18T16:03:21;5.00;65.50
44607;DHT22;30315;46.072;14.474;2022-12-18T16:10:07;5.00;66.00
44607;DHT22;30315;46.072;14.474;2022-12-18T16:13:25;5.00;65.60
44607;DHT22;30315;46.072;14.474;2022-12-18T16:20:40;4.50;65.00
44607;DHT22;30315;46.072;14.474;2022-12-18T16:23:10;4.90;64.90
44607;DHT22;30315;46.072;14.474;2022-12-18T16:25:40;4.90;65.20
44607;DHT22;30315;46.072;14.474;2022-12-18T16:28:19;4.90;65.70
44607;DHT22;30315;46.072;14.474;2022-12-18T16:31:20;4.90;66.20
44607;DHT22;30315;46.072;14.474;2022-12-18T16:34:29;5.00;65.90
44607;DHT22;30315;46.072;14.474;2022-12-18T16:37:52;4.90;66.10
44607;DHT22;30315;46.072;14.474;2022-12-18T16:40:34;4.90;65.60
44607;DHT22;30315;46.072;14.474;2022-12-18T16:43:32;5.00;65.80
44607;DHT22;30315;46.072;14.474;2022-12-18T16:50:12;5.00;65.70
44607;DHT22;30315;46.072;14.474;2022-12-18T16:53:05;5.30;66.40
44607;DHT22;30315;46.072;14.474;2022-12-18T16:55:55;5.00;65.60
44607;DHT22;30315;46.072;14.474;2022-12-18T16:58:24;5.00;65.70
44607;DHT22;30315;46.072;14.474;2022-12-18T17:00:55;5.00;65.30
44607;DHT22;30315;46.072;14.474;2022-12-18T17:03:22;5.00;65.30
44607;DHT22;30315;46.072;14.474;2022-12-18T17:05:52;5.00;65.70
44607;DHT22;30315;46.072;14.474;2022-12-18T17:08:20;4.90;65.60
44607;DHT22;30315;46.072;14.474;2022-12-18T17:10:47;5.00;65.50
44607;DHT22;30315;46.072;14.474;2022-12-18T17:13:16;4.90;65.60
44607;DHT22;30315;46.072;14.474;2022-12-18T17:15:51;5.00;65.60
44607;DHT22;30315;46.072;14.474;2022-12-18T17:18:19;5.00;66.10
44607;DHT22;30315;46.072;14.474;2022-12-18T17:20:49;5.00;66.20
44607;DHT22;30315;46.072;14.474;2022-12-18T17:23:20;5.00;65.60
44607;DHT22;30315;46.072;14.474;2022-12-18T17:26:03;5.00;66.00
44607;DHT22;30315;46.072;14.474;2022-12-18T17:28:37;5.00;66.10
44607;DHT22;30315;46.072;14.474;2022-12-18T17:31:18;5.20;66.20
44607;DHT22;30315;46.072;14.474;2022-12-18T17:34:05;4.80;65.70
44607;DHT22;30315;46.072;14.474;2022-12-18T17:36:47;5.00;65.80
44607;DHT22;30315;46.072;14.474;2022-12-18T17:39:22;4.60;65.70
44607;DHT22;30315;46.072;14.474;2022-12-18T17:41:51;5.00;65.90
44607;DHT22;30315;46.072;14.474;2022-12-18T17:44:21;5.00;65.80
44607;DHT22;30315;46.072;14.474;2022-12-18T17:46:49;5.00;65.90
44607;DHT22;30315;46.072;14.474;2022-12-18T17:49:20;4.90;65.70
44607;DHT22;30315;46.072;14.474;2022-12-18T17:51:52;4.80;65.80
44607;DHT22;30315;46.072;14.474;2022-12-18T17:54:27;4.90;65.80
44607;DHT22;30315;46.072;14.474;2022-12-18T17:57:10;4.90;66.00
44607;DHT22;30315;46.072;14.474;2022-12-18T17:59:54;4.90;66.00
44607;DHT22;30315;46.072;14.474;2022-12-18T18:05:22;4.90;66.00
44607;DHT22;30315;46.072;14.474;2022-12-18T18:07:49;4.90;66.10
44607;DHT22;30315;46.072;14.474;2022-12-18T18:10:18;5.00;66.40
44607;DHT22;30315;46.072;14.474;2022-12-18T18:12:45;4.80;66.00
44607;DHT22;30315;46.072;14.474;2022-12-18T18:15:31;4.80;66.10
44607;DHT22;30315;46.072;14.474;2022-12-18T18:18:00;4.90;66.20
44607;DHT22;30315;46.072;14.474;2022-12-18T18:20:40;4.80;65.90
44607;DHT22;30315;46.072;14.474;2022-12-18T18:23:10;4.90;66.10
44607;DHT22;30315;46.072;14.474;2022-12-18T18:25:37;4.90;66.30
44607;DHT22;30315;46.072;14.474;2022-12-18T18:28:12;4.80;66.00
44607;DHT22;30315;46.072;14.474;2022-12-18T18:30:47;4.80;65.90
44607;DHT22;30315;46.072;14.474;2022-12-18T18:33:14;4.80;66.10